createdAt,value
2018-03-18T00:00:55.896Z,986.66
2018-03-18T00:02:05.958Z,986.65
2018-03-18T00:03:16.118Z,986.7
2018-03-18T00:04:26.162Z,986.66
2018-03-18T00:05:36.229Z,986.68
2018-03-18T00:06:46.289Z,986.7
2018-03-18T00:07:56.351Z,986.71
2018-03-18T00:09:06.218Z,986.72
2018-03-18T00:10:16.286Z,986.69
2018-03-18T00:11:25.849Z,986.77
2018-03-18T00:12:35.643Z,986.65
2018-03-18T00:13:45.465Z,986.72
2018-03-18T00:14:55.041Z,986.73
2018-03-18T00:16:04.832Z,986.76
2018-03-18T00:17:14.100Z,986.82
2018-03-18T00:18:23.892Z,986.71
2018-03-18T00:19:33.978Z,986.77
2018-03-18T00:20:43.863Z,986.76
2018-03-18T00:21:53.927Z,986.77
2018-03-18T00:23:03.720Z,986.78
2018-03-18T00:24:13.780Z,986.76
2018-03-18T00:25:23.851Z,986.77
2018-03-18T00:26:33.944Z,986.72
2018-03-18T00:27:44.014Z,986.74
2018-03-18T00:28:53.551Z,986.81
2018-03-18T00:30:03.251Z,986.78
2018-03-18T00:31:13.200Z,986.76
2018-03-18T00:32:23.491Z,986.71
2018-03-18T00:33:33.323Z,986.7
2018-03-18T00:34:43.178Z,986.73
2018-03-18T00:35:53.004Z,986.72
2018-03-18T00:37:03.076Z,986.76
2018-03-18T00:38:12.924Z,986.76
2018-03-18T00:39:22.445Z,986.71
2018-03-18T00:40:32.242Z,986.75
2018-03-18T00:41:42.315Z,986.79
2018-03-18T00:42:52.104Z,986.79
2018-03-18T00:44:02.161Z,986.77
2018-03-18T00:45:12.271Z,986.76
2018-03-18T00:46:22.054Z,986.72
2018-03-18T00:47:31.840Z,986.76
2018-03-18T00:48:41.757Z,986.79
2018-03-18T00:49:51.825Z,986.75
2018-03-18T00:51:01.348Z,986.82
2018-03-18T00:52:11.389Z,986.74
2018-03-18T00:53:20.930Z,986.77
2018-03-18T00:54:30.732Z,986.78
2018-03-18T00:55:40.783Z,986.79
2018-03-18T00:56:50.618Z,986.73
2018-03-18T00:57:59.874Z,986.72
2018-03-18T00:59:09.689Z,986.66
2018-03-18T01:00:19.490Z,986.65
2018-03-18T01:01:29.289Z,986.65
2018-03-18T01:02:38.879Z,986.7
2018-03-18T01:03:48.937Z,986.73
2018-03-18T01:04:58.752Z,986.67
2018-03-18T01:06:08.549Z,986.74
2018-03-18T01:07:18.599Z,986.68
2018-03-18T01:08:28.737Z,986.65
2018-03-18T01:09:38.797Z,986.71
2018-03-18T01:10:48.877Z,986.72
2018-03-18T01:11:58.929Z,986.68
2018-03-18T01:13:08.976Z,986.7
2018-03-18T01:14:19.074Z,986.67
2018-03-18T01:15:29.118Z,986.66
2018-03-18T01:16:38.656Z,986.67
2018-03-18T01:17:48.173Z,986.59
2018-03-18T01:18:57.955Z,986.61
2018-03-18T01:20:07.792Z,986.56
2018-03-18T01:21:17.844Z,986.53
2018-03-18T01:22:27.903Z,986.45
2018-03-18T01:23:37.425Z,986.56
2018-03-18T01:24:47.242Z,986.46
2018-03-18T01:25:57.040Z,986.4
2018-03-18T01:27:06.846Z,986.47
2018-03-18T01:28:16.911Z,986.48
2018-03-18T01:29:26.972Z,986.5
2018-03-18T01:30:36.771Z,986.48
2018-03-18T01:31:46.556Z,986.59
2018-03-18T01:32:56.604Z,986.5
2018-03-18T01:34:06.396Z,986.52
2018-03-18T01:35:16.444Z,986.46
2018-03-18T01:36:26.520Z,986.38
2018-03-18T01:37:36.052Z,986.41
2018-03-18T01:38:45.835Z,986.41
2018-03-18T01:39:55.884Z,986.41
2018-03-18T01:41:05.686Z,986.45
2018-03-18T01:42:15.747Z,986.44
2018-03-18T01:43:25.060Z,986.41
2018-03-18T01:44:35.106Z,986.39
2018-03-18T01:45:45.195Z,986.36
2018-03-18T01:46:55.257Z,986.39
2018-03-18T01:48:05.049Z,986.39
2018-03-18T01:49:14.574Z,986.33
2018-03-18T01:50:24.663Z,986.41
2018-03-18T01:51:34.724Z,986.39
2018-03-18T01:52:44.530Z,986.36
2018-03-18T01:53:54.371Z,986.36
2018-03-18T01:55:04.002Z,986.35
2018-03-18T01:56:13.535Z,986.39
2018-03-18T01:57:23.595Z,986.34
2018-03-18T01:58:32.858Z,986.38
2018-03-18T01:59:42.929Z,986.37
2018-03-18T02:00:53.011Z,986.41
2018-03-18T02:02:02.826Z,986.38
2018-03-18T02:03:12.879Z,986.36
2018-03-18T02:04:22.740Z,986.32
2018-03-18T02:05:32.808Z,986.29
2018-03-18T02:06:42.607Z,986.4
2018-03-18T02:07:52.394Z,986.4
2018-03-18T02:09:02.187Z,986.43
2018-03-18T02:10:12.256Z,986.38
2018-03-18T02:11:22.310Z,986.36
2018-03-18T02:12:32.444Z,986.32
2018-03-18T02:13:42.239Z,986.32
2018-03-18T02:14:52.028Z,986.35
2018-03-18T02:16:01.866Z,986.36
2018-03-18T02:17:11.919Z,986.37
2018-03-18T02:18:22.106Z,986.32
2018-03-18T02:19:31.617Z,986.38
2018-03-18T02:20:41.761Z,986.34
2018-03-18T02:21:51.802Z,986.45
2018-03-18T02:23:01.870Z,986.45
2018-03-18T02:24:11.917Z,986.47
2018-03-18T02:25:21.709Z,986.45
2018-03-18T02:26:31.775Z,986.51
2018-03-18T02:27:41.023Z,986.49
2018-03-18T02:28:51.078Z,986.45
2018-03-18T02:30:01.192Z,986.46
2018-03-18T02:31:11.288Z,986.49
2018-03-18T02:32:21.336Z,986.49
2018-03-18T02:33:30.872Z,986.48
2018-03-18T02:34:40.956Z,986.49
2018-03-18T02:35:50.561Z,986.5
2018-03-18T02:37:00.376Z,986.49
2018-03-18T02:38:10.180Z,986.47
2018-03-18T02:39:20.239Z,986.48
2018-03-18T02:40:30.025Z,986.48
2018-03-18T02:41:39.926Z,986.52
2018-03-18T02:42:49.992Z,986.58
2018-03-18T02:44:00.058Z,986.55
2018-03-18T02:45:10.111Z,986.58
2018-03-18T02:46:20.172Z,986.59
2018-03-18T02:47:29.718Z,986.52
2018-03-18T02:48:39.788Z,986.59
2018-03-18T02:49:49.309Z,986.58
2018-03-18T02:50:59.124Z,986.57
2018-03-18T02:52:08.915Z,986.53
2018-03-18T02:53:18.788Z,986.56
2018-03-18T02:54:29.213Z,986.56
2018-03-18T02:55:39.063Z,986.52
2018-03-18T02:56:48.861Z,986.54
2018-03-18T02:57:58.925Z,986.42
2018-03-18T02:59:09.055Z,986.42
2018-03-18T03:00:18.593Z,986.4
2018-03-18T03:01:28.134Z,986.43
2018-03-18T03:02:37.937Z,986.46
2018-03-18T03:03:47.743Z,986.44
2018-03-18T03:04:57.602Z,986.42
2018-03-18T03:06:07.616Z,986.45
2018-03-18T03:07:26.364Z,986.59
2018-03-18T03:39:23.094Z,986.33
2018-03-18T03:40:32.895Z,986.38
2018-03-18T03:41:42.677Z,986.39
2018-03-18T03:42:52.732Z,986.36
2018-03-18T03:44:02.789Z,986.39
2018-03-18T03:45:12.896Z,986.47
2018-03-18T03:46:22.965Z,986.39
2018-03-18T03:47:33.014Z,986.45
2018-03-18T03:48:43.082Z,986.46
2018-03-18T03:49:53.143Z,986.48
2018-03-18T03:51:03.240Z,986.37
2018-03-18T03:52:13.302Z,986.37
2018-03-18T03:53:23.342Z,986.4
2018-03-18T03:54:33.395Z,986.34
2018-03-18T03:55:43.456Z,986.35
2018-03-18T03:56:53.559Z,986.35
2018-03-18T03:58:03.609Z,986.4
2018-03-18T03:59:13.662Z,986.42
2018-03-18T04:00:23.724Z,986.43
2018-03-18T04:01:33.779Z,986.5
2018-03-18T04:02:43.905Z,986.5
2018-03-18T04:03:53.711Z,986.42
2018-03-18T04:05:03.506Z,986.44
2018-03-18T04:06:13.288Z,986.42
2018-03-18T04:07:22.803Z,986.44
2018-03-18T04:08:32.383Z,986.43
2018-03-18T04:09:42.182Z,986.42
2018-03-18T04:10:52.039Z,986.44
2018-03-18T04:12:01.836Z,986.41
2018-03-18T04:13:11.886Z,986.47
2018-03-18T04:14:21.674Z,986.47
2018-03-18T04:15:31.190Z,986.45
2018-03-18T04:16:40.456Z,986.41
2018-03-18T04:17:50.242Z,986.54
2018-03-18T04:19:00.298Z,986.39
2018-03-18T04:20:10.121Z,986.46
2018-03-18T04:21:19.910Z,986.45
2018-03-18T04:22:29.437Z,986.47
2018-03-18T04:23:39.273Z,986.49
2018-03-18T04:24:49.064Z,986.54
2018-03-18T04:25:59.136Z,986.57
2018-03-18T04:27:08.939Z,986.59
2018-03-18T04:28:18.460Z,986.58
2018-03-18T04:29:28.271Z,986.59
2018-03-18T04:30:38.323Z,986.61
2018-03-18T04:31:48.385Z,986.57
2018-03-18T04:32:58.167Z,986.61
2018-03-18T04:34:08.228Z,986.62
2018-03-18T04:35:18.275Z,986.62
2018-03-18T04:36:27.802Z,986.59
2018-03-18T04:37:37.884Z,986.64
2018-03-18T04:38:47.678Z,986.73
2018-03-18T04:39:57.740Z,986.73
2018-03-18T04:41:07.807Z,986.7
2018-03-18T04:42:17.856Z,986.71
2018-03-18T04:43:27.979Z,986.71
2018-03-18T04:44:37.780Z,986.75
2018-03-18T04:45:47.305Z,986.8
2018-03-18T04:46:57.354Z,986.71
2018-03-18T04:48:07.145Z,986.84
2018-03-18T04:49:16.730Z,986.73
2018-03-18T04:50:26.904Z,986.65
2018-03-18T04:51:36.952Z,986.69
2018-03-18T04:52:47.001Z,986.69
2018-03-18T04:53:57.039Z,986.72
2018-03-18T04:55:06.821Z,986.7
2018-03-18T04:56:16.616Z,986.77
2018-03-18T04:57:25.868Z,986.79
2018-03-18T04:58:35.661Z,986.7
2018-03-18T04:59:45.724Z,986.76
2018-03-18T05:00:55.558Z,986.77
2018-03-18T05:02:05.609Z,986.72
2018-03-18T05:03:15.398Z,986.77
2018-03-18T05:04:25.465Z,986.8
2018-03-18T05:05:35.258Z,986.94
2018-03-18T05:06:45.324Z,986.86
2018-03-18T05:07:55.370Z,986.84
2018-03-18T05:09:04.882Z,986.86
2018-03-18T05:10:14.938Z,986.86
2018-03-18T05:11:24.724Z,986.81
2018-03-18T05:12:34.833Z,986.85
2018-03-18T05:13:44.958Z,986.8
2018-03-18T05:14:54.769Z,986.8
2018-03-18T05:16:04.317Z,986.87
2018-03-18T05:17:14.373Z,986.9
2018-03-18T05:18:23.891Z,986.88
2018-03-18T05:19:33.950Z,986.92
2018-03-18T05:20:43.997Z,986.92
2018-03-18T05:21:53.241Z,986.93
2018-03-18T05:23:02.757Z,986.91
2018-03-18T05:24:12.549Z,986.99
2018-03-18T05:25:22.620Z,987.02
2018-03-18T05:26:32.670Z,986.99
2018-03-18T05:27:42.447Z,987.07
2018-03-18T05:28:51.973Z,986.98
2018-03-18T05:30:01.768Z,987.01
2018-03-18T05:31:11.805Z,987.03
2018-03-18T05:32:21.874Z,987
2018-03-18T05:33:31.927Z,987.04
2018-03-18T05:34:41.461Z,987.02
2018-03-18T05:35:51.521Z,987.01
2018-03-18T05:37:01.319Z,986.95
2018-03-18T05:38:11.095Z,986.99
2018-03-18T05:39:20.901Z,987.04
2018-03-18T05:40:30.967Z,987.03
2018-03-18T05:41:41.065Z,987.03
2018-03-18T05:42:51.123Z,987.13
2018-03-18T05:44:01.174Z,987.14
2018-03-18T05:45:10.971Z,987.14
2018-03-18T05:46:21.041Z,987.22
2018-03-18T05:47:31.153Z,987.14
2018-03-18T05:48:40.932Z,987.12
2018-03-18T05:49:50.468Z,987.04
2018-03-18T05:51:00.533Z,987.13
2018-03-18T05:52:10.590Z,987.14
2018-03-18T05:53:20.437Z,987.09
2018-03-18T05:54:30.495Z,987.16
2018-03-18T05:55:40.290Z,987.12
2018-03-18T05:56:50.342Z,987.17
2018-03-18T05:58:00.413Z,987.15
2018-03-18T05:59:10.491Z,987.13
2018-03-18T06:00:20.282Z,987.15
2018-03-18T06:01:30.330Z,987.12
2018-03-18T06:02:40.123Z,987.15
2018-03-18T06:03:50.227Z,987.18
2018-03-18T06:05:00.281Z,987.19
2018-03-18T06:06:10.079Z,987.27
2018-03-18T06:07:19.885Z,987.21
2018-03-18T06:08:29.690Z,987.26
2018-03-18T06:09:39.472Z,987.32
2018-03-18T06:10:49.258Z,987.33
2018-03-18T06:11:59.057Z,987.31
2018-03-18T06:13:09.162Z,987.33
2018-03-18T06:14:19.231Z,987.23
2018-03-18T06:15:29.036Z,987.25
2018-03-18T06:16:39.154Z,987.31
2018-03-18T06:17:49.221Z,987.38
2018-03-18T06:18:58.876Z,987.42
2018-03-18T06:20:08.933Z,987.37
2018-03-18T06:21:18.998Z,987.39
2018-03-18T06:22:29.121Z,987.43
2018-03-18T06:23:39.177Z,987.38
2018-03-18T06:24:48.717Z,987.39
2018-03-18T06:25:58.758Z,987.41
2018-03-18T06:27:08.814Z,987.41
2018-03-18T06:28:18.935Z,987.44
2018-03-18T06:29:28.736Z,987.48
2018-03-18T06:30:38.805Z,987.51
2018-03-18T06:31:48.882Z,987.53
2018-03-18T06:32:58.667Z,987.48
2018-03-18T06:34:08.723Z,987.58
2018-03-18T06:35:18.517Z,987.55
2018-03-18T06:36:28.034Z,987.59
2018-03-18T06:37:38.088Z,987.64
2018-03-18T06:38:48.149Z,987.61
2018-03-18T06:39:57.940Z,987.6
2018-03-18T06:41:08.011Z,987.66
2018-03-18T06:42:18.127Z,987.64
2018-03-18T06:43:27.912Z,987.69
2018-03-18T06:44:37.699Z,987.72
2018-03-18T06:45:47.808Z,987.68
2018-03-18T06:46:57.639Z,987.7
2018-03-18T06:48:07.195Z,987.69
2018-03-18T06:49:17.247Z,987.73
2018-03-18T06:50:27.288Z,987.75
2018-03-18T06:51:36.807Z,987.76
2018-03-18T06:52:46.859Z,987.81
2018-03-18T06:53:56.985Z,987.76
2018-03-18T06:55:06.892Z,987.86
2018-03-18T06:56:16.713Z,987.9
2018-03-18T06:57:26.765Z,987.81
2018-03-18T06:58:36.333Z,987.85
2018-03-18T06:59:46.384Z,987.86
2018-03-18T07:00:55.924Z,987.84
2018-03-18T07:02:05.722Z,987.86
2018-03-18T07:03:15.772Z,987.95
2018-03-18T07:04:25.575Z,987.9
2018-03-18T07:05:35.422Z,987.92
2018-03-18T07:06:45.543Z,987.96
2018-03-18T07:07:55.609Z,987.91
2018-03-18T07:09:05.395Z,987.92
2018-03-18T07:10:15.448Z,987.96
2018-03-18T07:11:25.248Z,987.99
2018-03-18T07:12:35.354Z,988.02
2018-03-18T07:13:45.151Z,988.08
2018-03-18T07:14:54.957Z,987.97
2018-03-18T07:16:05.033Z,988.04
2018-03-18T07:17:14.565Z,988.03
2018-03-18T07:18:24.674Z,988.02
2018-03-18T07:19:34.479Z,988.03
2018-03-18T07:20:44.277Z,988.03
2018-03-18T07:21:53.813Z,988.02
2018-03-18T07:23:03.351Z,988.03
2018-03-18T07:24:13.141Z,988.06
2018-03-18T07:25:23.246Z,988.06
2018-03-18T07:26:33.138Z,988.03
2018-03-18T07:27:42.935Z,988.06
2018-03-18T07:28:52.747Z,988.12
2018-03-18T07:30:02.818Z,988.1
2018-03-18T07:31:12.601Z,988.12
2018-03-18T07:32:22.649Z,988.06
2018-03-18T07:33:32.793Z,988.03
2018-03-18T07:34:42.830Z,988.05
2018-03-18T07:35:52.117Z,988.06
2018-03-18T07:37:01.932Z,988.03
2018-03-18T07:38:11.858Z,988.09
2018-03-18T07:39:21.773Z,988.02
2018-03-18T07:40:32.449Z,988.11
2018-03-18T07:41:42.502Z,988.02
2018-03-18T07:42:52.028Z,988.09
2018-03-18T07:44:02.124Z,988.06
2018-03-18T07:45:11.916Z,988.12
2018-03-18T07:46:21.722Z,988.07
2018-03-18T07:47:31.264Z,988.09
2018-03-18T07:48:41.330Z,988.1
2018-03-18T07:49:50.930Z,988.11
2018-03-18T07:51:00.733Z,988.14
2018-03-18T07:52:10.538Z,988.17
2018-03-18T07:53:20.619Z,988.16
2018-03-18T07:54:30.451Z,988.19
2018-03-18T07:55:40.034Z,988.17
2018-03-18T07:56:50.114Z,988.19
2018-03-18T07:57:59.906Z,988.17
2018-03-18T07:59:09.707Z,988.23
2018-03-18T08:00:19.764Z,988.22
2018-03-18T08:01:29.865Z,988.17
2018-03-18T08:02:39.922Z,988.21
2018-03-18T08:03:49.721Z,988.23
2018-03-18T08:04:59.782Z,988.22
2018-03-18T08:06:09.316Z,988.25
2018-03-18T08:07:19.411Z,988.3
2018-03-18T08:08:28.979Z,988.3
2018-03-18T08:09:38.839Z,988.3
2018-03-18T08:10:48.632Z,988.33
2018-03-18T08:11:58.446Z,988.33
2018-03-18T08:13:08.299Z,988.34
2018-03-18T08:14:18.365Z,988.37
2018-03-18T08:15:28.457Z,988.38
2018-03-18T08:16:38.535Z,988.4
2018-03-18T08:17:48.587Z,988.42
2018-03-18T08:18:58.756Z,988.41
2018-03-18T08:20:08.825Z,988.41
2018-03-18T08:21:18.896Z,988.43
2018-03-18T08:22:28.724Z,988.45
2018-03-18T08:23:38.787Z,988.45
2018-03-18T08:24:48.632Z,988.51
2018-03-18T08:25:58.676Z,988.51
2018-03-18T08:27:08.742Z,988.52
2018-03-18T08:28:18.811Z,988.59
2018-03-18T08:29:28.354Z,988.54
2018-03-18T08:30:38.480Z,988.55
2018-03-18T08:31:48.288Z,988.63
2018-03-18T08:32:58.338Z,988.6
2018-03-18T08:34:08.393Z,988.6
2018-03-18T08:35:17.977Z,988.7
2018-03-18T08:36:27.814Z,988.66
2018-03-18T08:37:37.885Z,988.76
2018-03-18T08:38:47.746Z,988.66
2018-03-18T08:39:57.823Z,988.61
2018-03-18T08:41:07.900Z,988.61
2018-03-18T08:42:18.019Z,988.64
2018-03-18T08:43:27.821Z,988.58
2018-03-18T08:44:37.887Z,988.63
2018-03-18T08:45:47.966Z,988.65
2018-03-18T08:46:58.026Z,988.66
2018-03-18T08:48:08.097Z,988.66
2018-03-18T08:49:18.158Z,988.67
2018-03-18T08:50:28.225Z,988.65
2018-03-18T08:51:38.371Z,988.64
2018-03-18T08:52:48.418Z,988.66
2018-03-18T08:53:58.486Z,988.72
2018-03-18T08:55:08.542Z,988.72
2018-03-18T08:56:18.598Z,988.65
2018-03-18T08:57:28.400Z,988.66
2018-03-18T08:58:38.455Z,988.66
2018-03-18T08:59:48.543Z,988.7
2018-03-18T09:00:58.606Z,988.68
2018-03-18T09:02:08.388Z,988.69
2018-03-18T09:03:18.444Z,988.73
2018-03-18T09:04:28.241Z,988.72
2018-03-18T09:05:38.319Z,988.7
2018-03-18T09:06:48.138Z,988.71
2018-03-18T09:07:57.670Z,988.65
2018-03-18T09:09:07.502Z,988.63
2018-03-18T09:10:17.363Z,988.64
2018-03-18T09:11:27.242Z,988.62
2018-03-18T09:12:37.310Z,988.67
2018-03-18T09:13:47.383Z,988.64
2018-03-18T09:14:57.463Z,988.63
2018-03-18T09:16:07.257Z,988.72
2018-03-18T09:17:17.390Z,988.69
2018-03-18T09:18:27.219Z,988.6
2018-03-18T09:19:37.025Z,988.65
2018-03-18T09:20:46.859Z,988.66
2018-03-18T09:21:56.964Z,988.63
2018-03-18T09:23:06.864Z,988.62
2018-03-18T09:24:17.006Z,988.64
2018-03-18T09:25:27.073Z,988.66
2018-03-18T09:26:36.903Z,988.67
2018-03-18T09:27:46.726Z,988.68
2018-03-18T09:28:56.552Z,988.72
2018-03-18T09:30:06.596Z,988.65
2018-03-18T09:31:16.712Z,988.72
2018-03-18T09:32:26.244Z,988.67
2018-03-18T09:33:36.310Z,988.7
2018-03-18T09:34:46.218Z,988.63
2018-03-18T09:35:56.286Z,988.63
2018-03-18T09:37:06.347Z,988.61
2018-03-18T09:38:16.443Z,988.6
2018-03-18T09:39:26.602Z,988.56
2018-03-18T09:40:36.685Z,988.59
2018-03-18T09:41:46.251Z,988.61
2018-03-18T09:42:56.071Z,988.63
2018-03-18T09:44:06.155Z,988.66
2018-03-18T09:45:16.224Z,988.7
2018-03-18T09:46:26.352Z,988.67
2018-03-18T09:47:36.456Z,988.71
2018-03-18T09:48:45.998Z,988.67
2018-03-18T09:49:56.190Z,988.65
2018-03-18T09:51:05.750Z,988.63
2018-03-18T09:52:15.604Z,988.67
2018-03-18T09:53:25.439Z,988.67
2018-03-18T09:54:35.534Z,988.67
2018-03-18T09:55:45.328Z,988.67
2018-03-18T09:56:55.135Z,988.71
2018-03-18T09:58:04.760Z,988.7
2018-03-18T09:59:14.564Z,988.76
2018-03-18T10:00:24.627Z,988.76
2018-03-18T10:01:34.454Z,988.72
2018-03-18T10:02:43.983Z,988.73
2018-03-18T10:03:54.103Z,988.76
2018-03-18T10:05:04.152Z,988.69
2018-03-18T10:06:13.701Z,988.64
2018-03-18T10:07:23.519Z,988.68
2018-03-18T10:08:33.614Z,988.64
2018-03-18T10:09:43.483Z,988.63
2018-03-18T10:10:53.275Z,988.68
2018-03-18T10:12:03.094Z,988.67
2018-03-18T10:13:12.645Z,988.71
2018-03-18T10:14:22.511Z,988.68
2018-03-18T10:15:32.354Z,988.65
2018-03-18T10:16:42.151Z,988.68
2018-03-18T10:17:51.942Z,988.66
2018-03-18T10:19:01.507Z,988.71
2018-03-18T10:20:11.651Z,988.63
2018-03-18T10:21:22.247Z,988.6
2018-03-18T10:22:32.069Z,988.64
2018-03-18T10:23:41.602Z,988.71
2018-03-18T10:24:51.690Z,988.72
2018-03-18T10:26:01.500Z,988.73
2018-03-18T10:27:12.253Z,988.7
2018-03-18T10:28:23.312Z,988.75
2018-03-18T10:29:33.879Z,988.79
2018-03-18T10:30:44.516Z,988.84
2018-03-18T10:31:54.542Z,988.85
2018-03-18T10:33:04.185Z,988.85
2018-03-18T10:34:14.457Z,988.81
2018-03-18T10:35:24.534Z,988.85
2018-03-18T10:36:34.344Z,988.84
2018-03-18T10:37:44.421Z,988.92
2018-03-18T10:38:54.313Z,988.96
2018-03-18T10:40:04.423Z,988.94
2018-03-18T10:41:14.508Z,988.99
2018-03-18T10:42:24.588Z,988.96
2018-03-18T10:43:34.425Z,988.92
2018-03-18T10:44:44.557Z,988.99
2018-03-18T10:45:54.374Z,988.92
2018-03-18T10:47:04.457Z,988.89
2018-03-18T10:48:14.907Z,988.88
2018-03-18T10:49:24.989Z,988.88
2018-03-18T10:50:34.903Z,988.87
2018-03-18T10:51:44.747Z,988.95
2018-03-18T10:52:54.296Z,988.91
2018-03-18T10:54:04.136Z,988.92
2018-03-18T10:55:13.706Z,988.97
2018-03-18T10:56:23.385Z,988.93
2018-03-18T10:57:33.195Z,989.02
2018-03-18T10:58:43.303Z,989.02
2018-03-18T10:59:52.857Z,989.02
2018-03-18T11:01:02.970Z,988.99
2018-03-18T11:02:13.111Z,989.04
2018-03-18T11:03:22.924Z,989.06
2018-03-18T11:04:33.022Z,989.06
2018-03-18T11:05:43.142Z,989.06
2018-03-18T11:06:52.974Z,988.97
2018-03-18T11:08:03.096Z,989
2018-03-18T11:09:13.221Z,989.03
2018-03-18T11:10:23.082Z,989
2018-03-18T11:11:33.234Z,988.98
2018-03-18T11:12:43.323Z,988.97
2018-03-18T11:13:53.443Z,988.96
2018-03-18T11:15:03.542Z,988.99
2018-03-18T11:16:13.861Z,989.03
2018-03-18T11:17:24.124Z,989.01
2018-03-18T11:18:34.198Z,989.01
2018-03-18T11:19:44.007Z,989.05
2018-03-18T11:20:54.099Z,988.93
2018-03-18T11:22:04.201Z,988.86
2018-03-18T11:23:14.291Z,988.92
2018-03-18T11:24:24.398Z,988.89
2018-03-18T11:25:34.524Z,988.85
2018-03-18T11:26:44.611Z,988.84
2018-03-18T11:27:54.692Z,988.9
2018-03-18T11:29:04.785Z,988.85
2018-03-18T11:30:14.609Z,988.86
2018-03-18T11:31:24.684Z,988.82
2018-03-18T11:32:34.987Z,988.8
2018-03-18T11:33:45.073Z,988.84
2018-03-18T11:34:54.894Z,988.85
2018-03-18T11:36:04.970Z,988.89
2018-03-18T11:37:14.865Z,988.9
2018-03-18T11:38:24.956Z,988.91
2018-03-18T11:39:34.771Z,988.93
2018-03-18T11:40:44.848Z,988.91
2018-03-18T11:41:54.652Z,988.93
2018-03-18T11:43:04.716Z,988.9
2018-03-18T11:44:14.557Z,988.87
2018-03-18T11:45:24.703Z,988.83
2018-03-18T11:46:34.266Z,988.86
2018-03-18T11:47:44.359Z,988.84
2018-03-18T11:48:54.521Z,988.83
2018-03-18T11:50:04.359Z,988.76
2018-03-18T11:51:14.164Z,988.75
2018-03-18T11:52:24.246Z,988.75
2018-03-18T11:53:34.354Z,988.67
2018-03-18T11:54:44.917Z,988.71
2018-03-18T11:55:54.837Z,988.61
2018-03-18T11:57:05.280Z,988.65
2018-03-18T11:58:15.097Z,988.62
2018-03-18T11:59:25.249Z,988.54
2018-03-18T12:00:35.261Z,988.55
2018-03-18T12:01:45.083Z,988.57
2018-03-18T12:02:54.905Z,988.56
2018-03-18T12:04:05.245Z,988.57
2018-03-18T12:05:15.321Z,988.56
2018-03-18T12:06:25.510Z,988.55
2018-03-18T12:07:35.208Z,988.54
2018-03-18T12:08:44.826Z,988.52
2018-03-18T12:09:54.915Z,988.57
2018-03-18T12:11:05.015Z,988.56
2018-03-18T12:12:14.943Z,988.53
2018-03-18T12:13:25.098Z,988.54
2018-03-18T12:14:34.989Z,988.55
2018-03-18T12:15:44.556Z,988.59
2018-03-18T12:16:54.433Z,988.55
2018-03-18T12:18:04.308Z,988.54
2018-03-18T12:19:14.431Z,988.61
2018-03-18T12:20:24.528Z,988.56
2018-03-18T12:21:34.684Z,988.54
2018-03-18T12:22:44.238Z,988.62
2018-03-18T12:23:54.624Z,988.6
2018-03-18T12:25:04.715Z,988.68
2018-03-18T12:26:14.555Z,988.6
2018-03-18T12:27:24.644Z,988.66
2018-03-18T12:28:34.455Z,988.65
2018-03-18T12:29:44.325Z,988.65
2018-03-18T12:30:54.225Z,988.64
2018-03-18T12:32:04.329Z,988.63
2018-03-18T12:33:14.181Z,988.63
2018-03-18T12:34:24.277Z,988.66
2018-03-18T12:35:34.100Z,988.72
2018-03-18T12:36:44.214Z,988.71
2018-03-18T12:37:54.196Z,988.69
2018-03-18T12:39:04.368Z,988.62
2018-03-18T12:40:14.718Z,988.68
2018-03-18T12:41:24.926Z,988.64
2018-03-18T12:42:35.010Z,988.71
2018-03-18T12:43:45.103Z,988.66
2018-03-18T12:44:55.188Z,988.62
2018-03-18T12:46:05.276Z,988.64
2018-03-18T12:47:15.165Z,988.69
2018-03-18T12:48:24.829Z,988.74
2018-03-18T12:49:34.810Z,988.73
2018-03-18T12:50:44.906Z,988.73
2018-03-18T12:51:55.010Z,988.72
2018-03-18T12:53:05.181Z,988.74
2018-03-18T12:54:15.268Z,988.74
2018-03-18T12:55:24.875Z,988.76
2018-03-18T12:56:34.972Z,988.71
2018-03-18T12:57:45.087Z,988.77
2018-03-18T12:58:54.943Z,988.77
2018-03-18T13:00:05.091Z,988.72
2018-03-18T13:01:15.153Z,988.77
2018-03-18T13:02:25.229Z,988.76
2018-03-18T13:03:35.318Z,988.81
2018-03-18T13:04:44.884Z,988.84
2018-03-18T13:05:54.695Z,988.91
2018-03-18T13:07:04.651Z,988.93
2018-03-18T13:08:14.812Z,988.97
2018-03-18T13:09:24.905Z,988.94
2018-03-18T13:10:34.779Z,988.98
2018-03-18T13:11:44.600Z,988.98
2018-03-18T13:12:53.873Z,988.93
2018-03-18T13:14:03.717Z,988.96
2018-03-18T13:15:13.501Z,989
2018-03-18T13:16:23.657Z,988.98
2018-03-18T13:17:33.492Z,988.96
2018-03-18T13:18:43.019Z,989
2018-03-18T13:19:52.817Z,988.98
2018-03-18T13:21:02.922Z,988.95
2018-03-18T13:22:12.798Z,988.96
2018-03-18T13:23:22.371Z,988.93
2018-03-18T13:24:32.466Z,988.91
2018-03-18T13:25:42.358Z,988.93
2018-03-18T13:26:52.408Z,988.96
2018-03-18T13:28:02.549Z,988.97
2018-03-18T13:29:12.386Z,989.04
2018-03-18T13:30:22.464Z,989
2018-03-18T13:31:32.272Z,988.97
2018-03-18T13:32:42.337Z,988.98
2018-03-18T13:33:52.440Z,989
2018-03-18T13:35:02.229Z,988.96
2018-03-18T13:36:12.341Z,988.92
2018-03-18T13:37:22.427Z,988.91
2018-03-18T13:38:32.505Z,988.92
2018-03-18T13:39:42.398Z,988.95
2018-03-18T13:40:52.489Z,988.93
2018-03-18T13:42:03.036Z,988.92
2018-03-18T13:43:13.132Z,988.94
2018-03-18T13:44:23.336Z,988.93
2018-03-18T13:45:33.623Z,988.99
2018-03-18T13:46:43.752Z,989.01
2018-03-18T13:47:53.696Z,989.03
2018-03-18T13:49:03.658Z,989.02
2018-03-18T13:50:13.543Z,989.01
2018-03-18T13:51:23.360Z,989
2018-03-18T13:52:33.174Z,988.96
2018-03-18T13:53:43.247Z,988.97
2018-03-18T13:54:53.414Z,988.98
2018-03-18T13:56:03.012Z,988.97
2018-03-18T13:57:12.844Z,988.98
2018-03-18T13:58:22.928Z,989.06
2018-03-18T13:59:33.047Z,989.05
2018-03-18T14:00:43.113Z,989.01
2018-03-18T14:01:52.990Z,989
2018-03-18T14:03:03.079Z,989.02
2018-03-18T14:04:13.178Z,988.99
2018-03-18T14:05:23.489Z,989.05
2018-03-18T14:06:33.335Z,989.02
2018-03-18T14:07:43.449Z,988.99
2018-03-18T14:08:53.523Z,988.98
2018-03-18T14:10:03.618Z,989.01
2018-03-18T14:11:13.714Z,989
2018-03-18T14:12:23.511Z,988.97
2018-03-18T14:13:33.660Z,989.06
2018-03-18T14:14:43.730Z,989
2018-03-18T14:15:54.081Z,989.02
2018-03-18T14:17:03.381Z,988.98
2018-03-18T14:18:12.941Z,988.97
2018-03-18T14:19:22.826Z,988.99
2018-03-18T14:20:32.666Z,988.99
2018-03-18T14:21:42.513Z,989.01
2018-03-18T14:22:52.059Z,989
2018-03-18T14:24:01.896Z,989.03
2018-03-18T14:25:12.043Z,989.03
2018-03-18T14:26:22.179Z,989.05
2018-03-18T14:27:32.314Z,989.1
2018-03-18T14:28:42.426Z,989.05
2018-03-18T14:29:52.583Z,989.05
2018-03-18T14:31:02.787Z,989.15
2018-03-18T14:32:12.913Z,989.12
2018-03-18T14:33:22.769Z,989.12
2018-03-18T14:34:32.604Z,989.13
2018-03-18T14:35:42.721Z,989.14
2018-03-18T14:36:52.282Z,989.14
2018-03-18T14:38:01.839Z,989.14
2018-03-18T14:39:11.679Z,989.18
2018-03-18T14:40:21.823Z,989.09
2018-03-18T14:41:31.365Z,989.07
2018-03-18T14:42:41.271Z,989.04
2018-03-18T14:43:51.366Z,988.94
2018-03-18T14:45:01.527Z,988.91
2018-03-18T14:46:11.800Z,988.92
2018-03-18T14:47:21.375Z,988.92
2018-03-18T14:48:31.244Z,988.91
2018-03-18T14:49:41.341Z,988.92
2018-03-18T14:50:51.432Z,988.87
2018-03-18T14:52:00.981Z,988.84
2018-03-18T14:53:11.058Z,988.86
2018-03-18T14:54:21.179Z,988.92
2018-03-18T14:55:31.281Z,989.02
2018-03-18T14:56:41.383Z,988.99
2018-03-18T14:57:50.948Z,989.05
2018-03-18T14:59:01.051Z,989
2018-03-18T15:00:11.241Z,988.99
2018-03-18T15:01:21.073Z,989.03
2018-03-18T15:02:31.298Z,989.02
2018-03-18T15:03:41.487Z,989.11
2018-03-18T15:04:51.622Z,989.01
2018-03-18T15:06:01.482Z,989.04
2018-03-18T15:07:11.318Z,989.06